sensor_id;sensor_type;location;lat;lon;timestamp;P1;durP1;ratioP1;P2;durP2;ratioP2
9799;SDS011;4939;52.00085300;4.17406100;2024-03-02T00:00:21;0.50;;;0.22;;
9799;SDS011;4939;52.00085300;4.17406100;2024-03-02T00:02:49;1.95;;;0.40;;
9799;SDS011;4939;52.00085300;4.17406100;2024-03-02T00:05:15;0.55;;;0.30;;
9799;SDS011;4939;52.00085300;4.17406100;2024-03-02T00:07:43;0.77;;;0.20;;
9799;SDS011;4939;52.00085300;4.17406100;2024-03-02T00:10:11;0.55;;;0.30;;
9799;SDS011;4939;52.00085300;4.17406100;2024-03-02T00:12:41;0.80;;;0.30;;
9799;SDS011;4939;52.00085300;4.17406100;2024-03-02T00:18:01;0.68;;;0.20;;
9799;SDS011;4939;52.00085300;4.17406100;2024-03-02T00:20:27;1.85;;;0.20;;
9799;SDS011;4939;52.00085300;4.17406100;2024-03-02T00:25:39;1.38;;;0.20;;
9799;SDS011;4939;52.00085300;4.17406100;2024-03-02T00:33:37;1.25;;;0.20;;
9799;SDS011;4939;52.00085300;4.17406100;2024-03-02T00:36:12;0.95;;;0.30;;
9799;SDS011;4939;52.00085300;4.17406100;2024-03-02T00:38:44;0.95;;;0.30;;
9799;SDS011;4939;52.00085300;4.17406100;2024-03-02T00:41:15;0.75;;;0.35;;
9799;SDS011;4939;52.00085300;4.17406100;2024-03-02T00:46:12;3.50;;;1.02;;
9799;SDS011;4939;52.00085300;4.17406100;2024-03-02T00:48:39;2.28;;;0.90;;
9799;SDS011;4939;52.00085300;4.17406100;2024-03-02T00:51:10;5.32;;;0.95;;
9799;SDS011;4939;52.00085300;4.17406100;2024-03-02T00:53:37;3.40;;;1.10;;
9799;SDS011;4939;52.00085300;4.17406100;2024-03-02T00:56:03;3.25;;;1.50;;
9799;SDS011;4939;52.00085300;4.17406100;2024-03-02T00:58:34;2.13;;;1.20;;
9799;SDS011;4939;52.00085300;4.17406100;2024-03-02T01:00:59;2.60;;;1.38;;
9799;SDS011;4939;52.00085300;4.17406100;2024-03-02T01:03:26;5.13;;;1.30;;
9799;SDS011;4939;52.00085300;4.17406100;2024-03-02T01:05:52;4.05;;;1.35;;
9799;SDS011;4939;52.00085300;4.17406100;2024-03-02T01:08:18;3.05;;;1.20;;
9799;SDS011;4939;52.00085300;4.17406100;2024-03-02T01:10:44;4.30;;;1.48;;
9799;SDS011;4939;52.00085300;4.17406100;2024-03-02T01:13:10;2.75;;;1.50;;
9799;SDS011;4939;52.00085300;4.17406100;2024-03-02T01:15:36;3.08;;;1.42;;
9799;SDS011;4939;52.00085300;4.17406100;2024-03-02T01:18:02;2.90;;;1.60;;
9799;SDS011;4939;52.00085300;4.17406100;2024-03-02T01:20:28;4.03;;;1.95;;
9799;SDS011;4939;52.00085300;4.17406100;2024-03-02T01:22:54;3.88;;;1.90;;
9799;SDS011;4939;52.00085300;4.17406100;2024-03-02T01:25:20;5.78;;;1.92;;
9799;SDS011;4939;52.00085300;4.17406100;2024-03-02T01:27:47;4.85;;;2.00;;
9799;SDS011;4939;52.00085300;4.17406100;2024-03-02T01:30:13;3.00;;;1.40;;
9799;SDS011;4939;52.00085300;4.17406100;2024-03-02T01:32:39;4.25;;;1.90;;
9799;SDS011;4939;52.00085300;4.17406100;2024-03-02T01:35:05;3.30;;;1.40;;
9799;SDS011;4939;52.00085300;4.17406100;2024-03-02T01:37:32;3.78;;;1.50;;
9799;SDS011;4939;52.00085300;4.17406100;2024-03-02T01:39:58;3.33;;;1.40;;
9799;SDS011;4939;52.00085300;4.17406100;2024-03-02T01:42:24;4.07;;;1.20;;
9799;SDS011;4939;52.00085300;4.17406100;2024-03-02T01:44:50;3.20;;;1.10;;
9799;SDS011;4939;52.00085300;4.17406100;2024-03-02T01:47:16;2.47;;;1.15;;
9799;SDS011;4939;52.00085300;4.17406100;2024-03-02T01:49:42;2.15;;;1.00;;
9799;SDS011;4939;52.00085300;4.17406100;2024-03-02T01:52:09;1.55;;;0.90;;
9799;SDS011;4939;52.00085300;4.17406100;2024-03-02T01:54:36;1.70;;;0.80;;
9799;SDS011;4939;52.00085300;4.17406100;2024-03-02T01:57:02;3.22;;;0.80;;
9799;SDS011;4939;52.00085300;4.17406100;2024-03-02T01:59:28;2.63;;;0.70;;
9799;SDS011;4939;52.00085300;4.17406100;2024-03-02T02:01:54;1.80;;;0.80;;
9799;SDS011;4939;52.00085300;4.17406100;2024-03-02T02:04:20;2.00;;;0.73;;
9799;SDS011;4939;52.00085300;4.17406100;2024-03-02T02:06:52;2.50;;;1.10;;
9799;SDS011;4939;52.00085300;4.17406100;2024-03-02T02:09:18;2.83;;;0.82;;
9799;SDS011;4939;52.00085300;4.17406100;2024-03-02T02:11:44;3.30;;;0.90;;
9799;SDS011;4939;52.00085300;4.17406100;2024-03-02T02:14:10;1.67;;;0.90;;
9799;SDS011;4939;52.00085300;4.17406100;2024-03-02T02:16:36;1.77;;;1.05;;
9799;SDS011;4939;52.00085300;4.17406100;2024-03-02T02:19:02;5.72;;;1.45;;
9799;SDS011;4939;52.00085300;4.17406100;2024-03-02T02:21:28;4.90;;;1.25;;
9799;SDS011;4939;52.00085300;4.17406100;2024-03-02T02:23:54;3.42;;;1.30;;
9799;SDS011;4939;52.00085300;4.17406100;2024-03-02T02:26:20;4.30;;;1.52;;
9799;SDS011;4939;52.00085300;4.17406100;2024-03-02T02:28:46;3.92;;;1.10;;
9799;SDS011;4939;52.00085300;4.17406100;2024-03-02T02:31:13;4.88;;;1.30;;
9799;SDS011;4939;52.00085300;4.17406100;2024-03-02T02:33:39;3.50;;;1.40;;
9799;SDS011;4939;52.00085300;4.17406100;2024-03-02T02:36:05;2.55;;;1.20;;
9799;SDS011;4939;52.00085300;4.17406100;2024-03-02T02:38:35;3.00;;;1.30;;
9799;SDS011;4939;52.00085300;4.17406100;2024-03-02T02:41:05;2.92;;;1.33;;
9799;SDS011;4939;52.00085300;4.17406100;2024-03-02T02:43:31;4.18;;;1.55;;
9799;SDS011;4939;52.00085300;4.17406100;2024-03-02T02:45:57;3.13;;;1.50;;
9799;SDS011;4939;52.00085300;4.17406100;2024-03-02T02:48:23;2.30;;;1.30;;
9799;SDS011;4939;52.00085300;4.17406100;2024-03-02T02:50:49;5.55;;;1.30;;
9799;SDS011;4939;52.00085300;4.17406100;2024-03-02T02:53:15;3.55;;;1.13;;
9799;SDS011;4939;52.00085300;4.17406100;2024-03-02T02:55:41;2.88;;;1.40;;
9799;SDS011;4939;52.00085300;4.17406100;2024-03-02T02:58:11;2.00;;;1.20;;
9799;SDS011;4939;52.00085300;4.17406100;2024-03-02T03:00:37;5.30;;;1.42;;
9799;SDS011;4939;52.00085300;4.17406100;2024-03-02T03:03:03;2.30;;;1.33;;
9799;SDS011;4939;52.00085300;4.17406100;2024-03-02T03:05:29;2.70;;;1.42;;
9799;SDS011;4939;52.00085300;4.17406100;2024-03-02T03:07:55;3.00;;;1.50;;
9799;SDS011;4939;52.00085300;4.17406100;2024-03-02T03:10:22;7.63;;;1.88;;
9799;SDS011;4939;52.00085300;4.17406100;2024-03-02T03:12:50;3.65;;;1.60;;
9799;SDS011;4939;52.00085300;4.17406100;2024-03-02T03:15:17;2.83;;;1.35;;
9799;SDS011;4939;52.00085300;4.17406100;2024-03-02T03:17:43;6.30;;;1.38;;
9799;SDS011;4939;52.00085300;4.17406100;2024-03-02T03:20:10;2.78;;;1.27;;
9799;SDS011;4939;52.00085300;4.17406100;2024-03-02T03:22:37;3.03;;;1.40;;
9799;SDS011;4939;52.00085300;4.17406100;2024-03-02T03:25:03;4.20;;;1.55;;
9799;SDS011;4939;52.00085300;4.17406100;2024-03-02T03:27:29;4.18;;;1.60;;
9799;SDS011;4939;52.00085300;4.17406100;2024-03-02T03:29:55;3.75;;;1.40;;
9799;SDS011;4939;52.00085300;4.17406100;2024-03-02T03:32:22;4.15;;;1.60;;
9799;SDS011;4939;52.00085300;4.17406100;2024-03-02T03:34:48;4.30;;;1.48;;
9799;SDS011;4939;52.00085300;4.17406100;2024-03-02T03:37:14;5.20;;;1.77;;
9799;SDS011;4939;52.00085300;4.17406100;2024-03-02T03:39:40;3.00;;;1.50;;
9799;SDS011;4939;52.00085300;4.17406100;2024-03-02T03:42:06;5.32;;;1.90;;
9799;SDS011;4939;52.00085300;4.17406100;2024-03-02T03:44:32;2.72;;;1.45;;
9799;SDS011;4939;52.00085300;4.17406100;2024-03-02T03:46:59;6.90;;;2.15;;
9799;SDS011;4939;52.00085300;4.17406100;2024-03-02T03:49:27;4.30;;;1.60;;
9799;SDS011;4939;52.00085300;4.17406100;2024-03-02T03:51:53;3.72;;;1.60;;
9799;SDS011;4939;52.00085300;4.17406100;2024-03-02T03:54:19;3.60;;;1.50;;
9799;SDS011;4939;52.00085300;4.17406100;2024-03-02T03:56:45;2.55;;;1.33;;
9799;SDS011;4939;52.00085300;4.17406100;2024-03-02T03:59:11;3.67;;;1.45;;
9799;SDS011;4939;52.00085300;4.17406100;2024-03-02T04:01:37;5.90;;;1.52;;
9799;SDS011;4939;52.00085300;4.17406100;2024-03-02T04:04:04;3.65;;;1.63;;
9799;SDS011;4939;52.00085300;4.17406100;2024-03-02T04:06:30;6.07;;;1.30;;
9799;SDS011;4939;52.00085300;4.17406100;2024-03-02T04:08:56;4.05;;;1.50;;
9799;SDS011;4939;52.00085300;4.17406100;2024-03-02T04:11:22;4.07;;;1.60;;
9799;SDS011;4939;52.00085300;4.17406100;2024-03-02T04:13:48;4.43;;;1.80;;
9799;SDS011;4939;52.00085300;4.17406100;2024-03-02T04:16:14;10.18;;;1.80;;
9799;SDS011;4939;52.00085300;4.17406100;2024-03-02T04:18:40;4.75;;;1.35;;
9799;SDS011;4939;52.00085300;4.17406100;2024-03-02T04:21:06;2.25;;;1.35;;
9799;SDS011;4939;52.00085300;4.17406100;2024-03-02T04:23:32;2.38;;;1.55;;
9799;SDS011;4939;52.00085300;4.17406100;2024-03-02T04:25:58;3.75;;;1.45;;
9799;SDS011;4939;52.00085300;4.17406100;2024-03-02T04:28:24;6.68;;;1.52;;
9799;SDS011;4939;52.00085300;4.17406100;2024-03-02T04:30:50;5.70;;;1.85;;
9799;SDS011;4939;52.00085300;4.17406100;2024-03-02T04:33:16;3.88;;;1.38;;
9799;SDS011;4939;52.00085300;4.17406100;2024-03-02T04:35:42;4.05;;;1.40;;
9799;SDS011;4939;52.00085300;4.17406100;2024-03-02T04:38:08;3.55;;;1.60;;
9799;SDS011;4939;52.00085300;4.17406100;2024-03-02T04:40:35;2.25;;;1.35;;
9799;SDS011;4939;52.00085300;4.17406100;2024-03-02T04:43:01;3.88;;;1.60;;
9799;SDS011;4939;52.00085300;4.17406100;2024-03-02T04:45:27;4.70;;;1.45;;
9799;SDS011;4939;52.00085300;4.17406100;2024-03-02T04:47:53;4.15;;;1.20;;
9799;SDS011;4939;52.00085300;4.17406100;2024-03-02T04:50:19;3.45;;;1.38;;
9799;SDS011;4939;52.00085300;4.17406100;2024-03-02T04:52:46;3.85;;;1.70;;
9799;SDS011;4939;52.00085300;4.17406100;2024-03-02T04:55:12;5.35;;;2.00;;
9799;SDS011;4939;52.00085300;4.17406100;2024-03-02T04:57:40;8.60;;;1.20;;
9799;SDS011;4939;52.00085300;4.17406100;2024-03-02T05:00:07;5.05;;;1.20;;
9799;SDS011;4939;52.00085300;4.17406100;2024-03-02T05:02:34;2.50;;;1.20;;
9799;SDS011;4939;52.00085300;4.17406100;2024-03-02T05:05:00;2.35;;;1.20;;
9799;SDS011;4939;52.00085300;4.17406100;2024-03-02T05:07:26;4.05;;;1.27;;
9799;SDS011;4939;52.00085300;4.17406100;2024-03-02T05:09:52;2.75;;;1.10;;
9799;SDS011;4939;52.00085300;4.17406100;2024-03-02T05:12:18;3.78;;;1.20;;
9799;SDS011;4939;52.00085300;4.17406100;2024-03-02T05:15:19;4.07;;;1.50;;
9799;SDS011;4939;52.00085300;4.17406100;2024-03-02T05:17:46;3.22;;;1.48;;
9799;SDS011;4939;52.00085300;4.17406100;2024-03-02T05:20:12;5.40;;;1.30;;
9799;SDS011;4939;52.00085300;4.17406100;2024-03-02T05:22:38;3.08;;;1.60;;
9799;SDS011;4939;52.00085300;4.17406100;2024-03-02T05:25:06;4.45;;;1.27;;
9799;SDS011;4939;52.00085300;4.17406100;2024-03-02T05:27:32;4.55;;;1.10;;
9799;SDS011;4939;52.00085300;4.17406100;2024-03-02T05:29:58;1.65;;;0.85;;
9799;SDS011;4939;52.00085300;4.17406100;2024-03-02T05:32:24;3.47;;;0.85;;
9799;SDS011;4939;52.00085300;4.17406100;2024-03-02T05:34:51;4.68;;;1.00;;
9799;SDS011;4939;52.00085300;4.17406100;2024-03-02T05:37:17;2.33;;;0.90;;
9799;SDS011;4939;52.00085300;4.17406100;2024-03-02T05:39:43;3.28;;;1.10;;
9799;SDS011;4939;52.00085300;4.17406100;2024-03-02T05:42:09;3.42;;;0.73;;
9799;SDS011;4939;52.00085300;4.17406100;2024-03-02T05:44:36;2.75;;;0.90;;
9799;SDS011;4939;52.00085300;4.17406100;2024-03-02T05:47:02;3.72;;;1.40;;
9799;SDS011;4939;52.00085300;4.17406100;2024-03-02T05:49:28;5.88;;;1.70;;
9799;SDS011;4939;52.00085300;4.17406100;2024-03-02T05:51:55;4.30;;;1.60;;
9799;SDS011;4939;52.00085300;4.17406100;2024-03-02T05:54:21;2.35;;;1.50;;
9799;SDS011;4939;52.00085300;4.17406100;2024-03-02T05:56:47;3.97;;;1.35;;
9799;SDS011;4939;52.00085300;4.17406100;2024-03-02T05:59:13;4.82;;;1.55;;
9799;SDS011;4939;52.00085300;4.17406100;2024-03-02T06:01:40;3.10;;;1.23;;
9799;SDS011;4939;52.00085300;4.17406100;2024-03-02T06:04:08;5.75;;;1.17;;
9799;SDS011;4939;52.00085300;4.17406100;2024-03-02T06:06:34;2.17;;;1.10;;
9799;SDS011;4939;52.00085300;4.17406100;2024-03-02T06:09:01;5.35;;;1.25;;
9799;SDS011;4939;52.00085300;4.17406100;2024-03-02T06:11:27;4.13;;;1.25;;
9799;SDS011;4939;52.00085300;4.17406100;2024-03-02T06:13:54;3.15;;;1.15;;
9799;SDS011;4939;52.00085300;4.17406100;2024-03-02T06:16:20;4.00;;;1.02;;
9799;SDS011;4939;52.00085300;4.17406100;2024-03-02T06:18:46;2.60;;;0.88;;
9799;SDS011;4939;52.00085300;4.17406100;2024-03-02T06:21:12;3.00;;;1.02;;
9799;SDS011;4939;52.00085300;4.17406100;2024-03-02T06:23:38;4.25;;;0.93;;
9799;SDS011;4939;52.00085300;4.17406100;2024-03-02T06:26:04;3.88;;;1.02;;
9799;SDS011;4939;52.00085300;4.17406100;2024-03-02T06:28:30;2.28;;;1.00;;
9799;SDS011;4939;52.00085300;4.17406100;2024-03-02T06:30:56;1.73;;;0.80;;
9799;SDS011;4939;52.00085300;4.17406100;2024-03-02T06:33:22;4.88;;;0.82;;
9799;SDS011;4939;52.00085300;4.17406100;2024-03-02T06:35:48;4.35;;;1.00;;
9799;SDS011;4939;52.00085300;4.17406100;2024-03-02T06:38:14;7.03;;;0.90;;
9799;SDS011;4939;52.00085300;4.17406100;2024-03-02T06:40:40;4.05;;;1.00;;
9799;SDS011;4939;52.00085300;4.17406100;2024-03-02T06:43:06;3.35;;;0.85;;
9799;SDS011;4939;52.00085300;4.17406100;2024-03-02T06:45:32;2.53;;;0.93;;
9799;SDS011;4939;52.00085300;4.17406100;2024-03-02T06:47:59;3.65;;;1.20;;
9799;SDS011;4939;52.00085300;4.17406100;2024-03-02T06:50:25;5.88;;;1.63;;
9799;SDS011;4939;52.00085300;4.17406100;2024-03-02T06:52:51;2.65;;;0.95;;
9799;SDS011;4939;52.00085300;4.17406100;2024-03-02T06:55:18;5.22;;;1.10;;
9799;SDS011;4939;52.00085300;4.17406100;2024-03-02T06:57:44;4.85;;;1.00;;
9799;SDS011;4939;52.00085300;4.17406100;2024-03-02T07:00:10;3.05;;;0.88;;
9799;SDS011;4939;52.00085300;4.17406100;2024-03-02T07:02:36;3.65;;;1.20;;
9799;SDS011;4939;52.00085300;4.17406100;2024-03-02T07:05:02;4.85;;;0.90;;
9799;SDS011;4939;52.00085300;4.17406100;2024-03-02T07:07:29;4.82;;;1.00;;
9799;SDS011;4939;52.00085300;4.17406100;2024-03-02T07:09:55;2.58;;;0.80;;
9799;SDS011;4939;52.00085300;4.17406100;2024-03-02T07:12:21;3.53;;;1.10;;
9799;SDS011;4939;52.00085300;4.17406100;2024-03-02T07:14:47;2.97;;;1.10;;
9799;SDS011;4939;52.00085300;4.17406100;2024-03-02T07:17:28;2.72;;;0.93;;
9799;SDS011;4939;52.00085300;4.17406100;2024-03-02T07:19:55;2.65;;;1.10;;
9799;SDS011;4939;52.00085300;4.17406100;2024-03-02T07:22:21;3.13;;;0.98;;
9799;SDS011;4939;52.00085300;4.17406100;2024-03-02T07:24:47;5.75;;;1.15;;
9799;SDS011;4939;52.00085300;4.17406100;2024-03-02T07:27:16;3.95;;;1.20;;
9799;SDS011;4939;52.00085300;4.17406100;2024-03-02T07:29:43;3.75;;;0.90;;
9799;SDS011;4939;52.00085300;4.17406100;2024-03-02T07:32:09;1.63;;;0.88;;
9799;SDS011;4939;52.00085300;4.17406100;2024-03-02T07:34:36;1.92;;;1.05;;
9799;SDS011;4939;52.00085300;4.17406100;2024-03-02T07:37:04;6.32;;;1.15;;
9799;SDS011;4939;52.00085300;4.17406100;2024-03-02T07:39:30;3.80;;;1.30;;
9799;SDS011;4939;52.00085300;4.17406100;2024-03-02T07:41:57;4.35;;;1.17;;
9799;SDS011;4939;52.00085300;4.17406100;2024-03-02T07:44:23;3.15;;;1.08;;
9799;SDS011;4939;52.00085300;4.17406100;2024-03-02T07:46:49;5.82;;;1.30;;
9799;SDS011;4939;52.00085300;4.17406100;2024-03-02T07:49:15;3.25;;;1.30;;
9799;SDS011;4939;52.00085300;4.17406100;2024-03-02T07:51:41;5.28;;;1.52;;
9799;SDS011;4939;52.00085300;4.17406100;2024-03-02T07:54:07;3.53;;;1.45;;
9799;SDS011;4939;52.00085300;4.17406100;2024-03-02T07:56:33;2.55;;;0.93;;
9799;SDS011;4939;52.00085300;4.17406100;2024-03-02T07:58:59;2.65;;;0.82;;
9799;SDS011;4939;52.00085300;4.17406100;2024-03-02T08:01:35;3.53;;;1.00;;
9799;SDS011;4939;52.00085300;4.17406100;2024-03-02T08:04:01;3.90;;;1.00;;
9799;SDS011;4939;52.00085300;4.17406100;2024-03-02T08:06:28;4.97;;;1.10;;
9799;SDS011;4939;52.00085300;4.17406100;2024-03-02T08:08:55;3.30;;;1.05;;
9799;SDS011;4939;52.00085300;4.17406100;2024-03-02T08:11:22;2.58;;;1.20;;
9799;SDS011;4939;52.00085300;4.17406100;2024-03-02T08:13:48;3.75;;;1.60;;
9799;SDS011;4939;52.00085300;4.17406100;2024-03-02T08:16:14;3.20;;;1.17;;
9799;SDS011;4939;52.00085300;4.17406100;2024-03-02T08:18:41;4.30;;;1.23;;
9799;SDS011;4939;52.00085300;4.17406100;2024-03-02T08:21:07;3.72;;;0.88;;
9799;SDS011;4939;52.00085300;4.17406100;2024-03-02T08:23:33;6.60;;;1.42;;
9799;SDS011;4939;52.00085300;4.17406100;2024-03-02T08:26:00;3.92;;;1.05;;
9799;SDS011;4939;52.00085300;4.17406100;2024-03-02T08:28:26;3.10;;;1.10;;
9799;SDS011;4939;52.00085300;4.17406100;2024-03-02T08:30:52;3.15;;;1.08;;
9799;SDS011;4939;52.00085300;4.17406100;2024-03-02T08:33:18;4.10;;;1.10;;
9799;SDS011;4939;52.00085300;4.17406100;2024-03-02T08:35:44;3.22;;;0.93;;
9799;SDS011;4939;52.00085300;4.17406100;2024-03-02T08:38:11;5.80;;;1.23;;
9799;SDS011;4939;52.00085300;4.17406100;2024-03-02T08:40:37;3.78;;;1.20;;
9799;SDS011;4939;52.00085300;4.17406100;2024-03-02T08:43:05;4.05;;;1.27;;
9799;SDS011;4939;52.00085300;4.17406100;2024-03-02T08:45:31;3.53;;;1.00;;
9799;SDS011;4939;52.00085300;4.17406100;2024-03-02T08:47:57;3.25;;;1.05;;
9799;SDS011;4939;52.00085300;4.17406100;2024-03-02T08:50:23;4.53;;;1.10;;
9799;SDS011;4939;52.00085300;4.17406100;2024-03-02T08:52:49;4.45;;;1.10;;
9799;SDS011;4939;52.00085300;4.17406100;2024-03-02T08:55:15;5.03;;;1.33;;
9799;SDS011;4939;52.00085300;4.17406100;2024-03-02T08:57:41;4.10;;;1.25;;
9799;SDS011;4939;52.00085300;4.17406100;2024-03-02T09:00:07;6.30;;;1.17;;
9799;SDS011;4939;52.00085300;4.17406100;2024-03-02T09:02:33;5.53;;;1.48;;
9799;SDS011;4939;52.00085300;4.17406100;2024-03-02T09:05:00;4.72;;;1.13;;
9799;SDS011;4939;52.00085300;4.17406100;2024-03-02T09:07:26;4.57;;;1.00;;
9799;SDS011;4939;52.00085300;4.17406100;2024-03-02T09:09:52;2.88;;;0.90;;
9799;SDS011;4939;52.00085300;4.17406100;2024-03-02T09:12:18;4.45;;;1.10;;
9799;SDS011;4939;52.00085300;4.17406100;2024-03-02T09:14:44;4.38;;;0.98;;
9799;SDS011;4939;52.00085300;4.17406100;2024-03-02T09:17:11;4.07;;;1.15;;
9799;SDS011;4939;52.00085300;4.17406100;2024-03-02T09:19:37;2.28;;;0.68;;
9799;SDS011;4939;52.00085300;4.17406100;2024-03-02T09:22:04;3.47;;;0.80;;
9799;SDS011;4939;52.00085300;4.17406100;2024-03-02T09:24:31;3.85;;;0.80;;
9799;SDS011;4939;52.00085300;4.17406100;2024-03-02T09:26:58;3.17;;;0.90;;
9799;SDS011;4939;52.00085300;4.17406100;2024-03-02T09:29:24;3.17;;;0.70;;
9799;SDS011;4939;52.00085300;4.17406100;2024-03-02T09:31:50;2.28;;;0.90;;
9799;SDS011;4939;52.00085300;4.17406100;2024-03-02T09:34:17;6.47;;;1.05;;
9799;SDS011;4939;52.00085300;4.17406100;2024-03-02T09:36:43;5.80;;;1.10;;
9799;SDS011;4939;52.00085300;4.17406100;2024-03-02T09:39:09;3.42;;;0.90;;
9799;SDS011;4939;52.00085300;4.17406100;2024-03-02T09:41:38;4.70;;;1.27;;
9799;SDS011;4939;52.00085300;4.17406100;2024-03-02T09:44:04;4.30;;;0.82;;
9799;SDS011;4939;52.00085300;4.17406100;2024-03-02T09:46:31;3.55;;;1.10;;
9799;SDS011;4939;52.00085300;4.17406100;2024-03-02T09:48:57;4.68;;;1.08;;
9799;SDS011;4939;52.00085300;4.17406100;2024-03-02T09:51:23;5.15;;;1.10;;
9799;SDS011;4939;52.00085300;4.17406100;2024-03-02T09:53:49;5.57;;;1.00;;
9799;SDS011;4939;52.00085300;4.17406100;2024-03-02T09:56:15;4.63;;;1.20;;
9799;SDS011;4939;52.00085300;4.17406100;2024-03-02T09:58:43;6.68;;;1.10;;
9799;SDS011;4939;52.00085300;4.17406100;2024-03-02T10:01:09;7.30;;;0.90;;
9799;SDS011;4939;52.00085300;4.17406100;2024-03-02T10:03:36;5.55;;;1.08;;
9799;SDS011;4939;52.00085300;4.17406100;2024-03-02T10:06:21;6.65;;;1.30;;
9799;SDS011;4939;52.00085300;4.17406100;2024-03-02T10:08:48;5.97;;;0.90;;
9799;SDS011;4939;52.00085300;4.17406100;2024-03-02T10:11:33;5.50;;;0.75;;
9799;SDS011;4939;52.00085300;4.17406100;2024-03-02T10:14:12;3.28;;;0.70;;
9799;SDS011;4939;52.00085300;4.17406100;2024-03-02T10:16:39;6.18;;;1.00;;
9799;SDS011;4939;52.00085300;4.17406100;2024-03-02T10:19:22;4.45;;;0.90;;
9799;SDS011;4939;52.00085300;4.17406100;2024-03-02T10:21:49;5.43;;;1.23;;
9799;SDS011;4939;52.00085300;4.17406100;2024-03-02T10:24:18;3.03;;;0.90;;
9799;SDS011;4939;52.00085300;4.17406100;2024-03-02T10:26:44;4.72;;;0.82;;
9799;SDS011;4939;52.00085300;4.17406100;2024-03-02T10:29:10;3.13;;;0.80;;
9799;SDS011;4939;52.00085300;4.17406100;2024-03-02T10:31:37;3.90;;;0.95;;
9799;SDS011;4939;52.00085300;4.17406100;2024-03-02T10:34:03;4.35;;;0.80;;
9799;SDS011;4939;52.00085300;4.17406100;2024-03-02T10:36:29;6.38;;;0.70;;
9799;SDS011;4939;52.00085300;4.17406100;2024-03-02T10:38:58;4.50;;;0.88;;
9799;SDS011;4939;52.00085300;4.17406100;2024-03-02T10:41:24;5.18;;;0.90;;
9799;SDS011;4939;52.00085300;4.17406100;2024-03-02T10:43:55;4.90;;;1.40;;
9799;SDS011;4939;52.00085300;4.17406100;2024-03-02T10:46:34;4.57;;;1.17;;
9799;SDS011;4939;52.00085300;4.17406100;2024-03-02T10:49:03;3.55;;;0.60;;
9799;SDS011;4939;52.00085300;4.17406100;2024-03-02T10:51:31;5.32;;;0.80;;
9799;SDS011;4939;52.00085300;4.17406100;2024-03-02T10:53:58;5.00;;;1.00;;
9799;SDS011;4939;52.00085300;4.17406100;2024-03-02T10:56:32;3.75;;;0.70;;
9799;SDS011;4939;52.00085300;4.17406100;2024-03-02T10:59:02;4.53;;;0.52;;
9799;SDS011;4939;52.00085300;4.17406100;2024-03-02T11:01:35;5.35;;;0.80;;
9799;SDS011;4939;52.00085300;4.17406100;2024-03-02T11:04:04;6.60;;;1.10;;
9799;SDS011;4939;52.00085300;4.17406100;2024-03-02T11:06:33;4.75;;;0.88;;
9799;SDS011;4939;52.00085300;4.17406100;2024-03-02T11:09:04;4.18;;;0.95;;
9799;SDS011;4939;52.00085300;4.17406100;2024-03-02T11:11:35;2.95;;;0.70;;
9799;SDS011;4939;52.00085300;4.17406100;2024-03-02T11:14:05;4.03;;;0.70;;
9799;SDS011;4939;52.00085300;4.17406100;2024-03-02T11:16:36;5.47;;;0.85;;
9799;SDS011;4939;52.00085300;4.17406100;2024-03-02T11:19:07;4.15;;;0.60;;
9799;SDS011;4939;52.00085300;4.17406100;2024-03-02T11:21:37;5.32;;;0.95;;
9799;SDS011;4939;52.00085300;4.17406100;2024-03-02T11:26:52;3.65;;;0.70;;
9799;SDS011;4939;52.00085300;4.17406100;2024-03-02T11:32:03;5.72;;;1.00;;
9799;SDS011;4939;52.00085300;4.17406100;2024-03-02T11:34:32;8.55;;;1.05;;
9799;SDS011;4939;52.00085300;4.17406100;2024-03-02T11:37:01;5.22;;;0.90;;
9799;SDS011;4939;52.00085300;4.17406100;2024-03-02T11:39:31;4.53;;;1.08;;
9799;SDS011;4939;52.00085300;4.17406100;2024-03-02T11:41:57;6.32;;;1.05;;
9799;SDS011;4939;52.00085300;4.17406100;2024-03-02T11:44:27;5.63;;;1.20;;
9799;SDS011;4939;52.00085300;4.17406100;2024-03-02T11:46:59;7.32;;;1.55;;
9799;SDS011;4939;52.00085300;4.17406100;2024-03-02T11:49:51;5.93;;;0.93;;
9799;SDS011;4939;52.00085300;4.17406100;2024-03-02T11:52:17;5.25;;;1.10;;
9799;SDS011;4939;52.00085300;4.17406100;2024-03-02T11:54:44;4.05;;;0.80;;
9799;SDS011;4939;52.00085300;4.17406100;2024-03-02T11:57:17;4.05;;;1.00;;
9799;SDS011;4939;52.00085300;4.17406100;2024-03-02T11:59:47;7.00;;;0.77;;
9799;SDS011;4939;52.00085300;4.17406100;2024-03-02T12:02:16;6.53;;;0.80;;
9799;SDS011;4939;52.00085300;4.17406100;2024-03-02T12:04:46;4.10;;;0.90;;
9799;SDS011;4939;52.00085300;4.17406100;2024-03-02T12:07:18;3.95;;;0.70;;
9799;SDS011;4939;52.00085300;4.17406100;2024-03-02T12:09:48;3.20;;;0.80;;
9799;SDS011;4939;52.00085300;4.17406100;2024-03-02T12:12:15;2.08;;;0.60;;
9799;SDS011;4939;52.00085300;4.17406100;2024-03-02T12:14:51;3.90;;;0.60;;
9799;SDS011;4939;52.00085300;4.17406100;2024-03-02T12:17:20;7.78;;;0.80;;
9799;SDS011;4939;52.00085300;4.17406100;2024-03-02T12:19:46;5.25;;;0.68;;
9799;SDS011;4939;52.00085300;4.17406100;2024-03-02T12:22:12;5.55;;;1.73;;
9799;SDS011;4939;52.00085300;4.17406100;2024-03-02T12:24:38;3.22;;;1.10;;
9799;SDS011;4939;52.00085300;4.17406100;2024-03-02T12:27:05;7.07;;;0.93;;
9799;SDS011;4939;52.00085300;4.17406100;2024-03-02T12:29:32;2.40;;;0.82;;
9799;SDS011;4939;52.00085300;4.17406100;2024-03-02T12:31:59;5.88;;;0.75;;
9799;SDS011;4939;52.00085300;4.17406100;2024-03-02T12:34:27;3.72;;;0.85;;
9799;SDS011;4939;52.00085300;4.17406100;2024-03-02T12:36:53;4.03;;;0.70;;
9799;SDS011;4939;52.00085300;4.17406100;2024-03-02T12:39:19;3.45;;;0.80;;
9799;SDS011;4939;52.00085300;4.17406100;2024-03-02T12:41:48;3.58;;;0.80;;
9799;SDS011;4939;52.00085300;4.17406100;2024-03-02T12:44:19;2.28;;;0.60;;
9799;SDS011;4939;52.00085300;4.17406100;2024-03-02T12:46:45;3.55;;;1.20;;
9799;SDS011;4939;52.00085300;4.17406100;2024-03-02T12:49:13;5.78;;;0.82;;
9799;SDS011;4939;52.00085300;4.17406100;2024-03-02T12:51:41;2.53;;;0.52;;
9799;SDS011;4939;52.00085300;4.17406100;2024-03-02T12:54:08;4.18;;;0.77;;
9799;SDS011;4939;52.00085300;4.17406100;2024-03-02T12:56:35;8.48;;;1.25;;
9799;SDS011;4939;52.00085300;4.17406100;2024-03-02T12:59:01;3.83;;;0.55;;
9799;SDS011;4939;52.00085300;4.17406100;2024-03-02T13:01:27;3.33;;;0.70;;
9799;SDS011;4939;52.00085300;4.17406100;2024-03-02T13:03:53;3.58;;;0.70;;
9799;SDS011;4939;52.00085300;4.17406100;2024-03-02T13:06:20;4.13;;;1.00;;
9799;SDS011;4939;52.00085300;4.17406100;2024-03-02T13:08:46;4.78;;;0.82;;
9799;SDS011;4939;52.00085300;4.17406100;2024-03-02T13:11:13;4.53;;;0.63;;
9799;SDS011;4939;52.00085300;4.17406100;2024-03-02T13:13:39;4.60;;;0.90;;
9799;SDS011;4939;52.00085300;4.17406100;2024-03-02T13:16:14;6.47;;;0.70;;
9799;SDS011;4939;52.00085300;4.17406100;2024-03-02T13:18:41;3.28;;;0.90;;
9799;SDS011;4939;52.00085300;4.17406100;2024-03-02T13:21:08;4.30;;;0.90;;
9799;SDS011;4939;52.00085300;4.17406100;2024-03-02T13:23:34;3.75;;;0.80;;
9799;SDS011;4939;52.00085300;4.17406100;2024-03-02T13:26:00;7.38;;;0.98;;
9799;SDS011;4939;52.00085300;4.17406100;2024-03-02T13:28:26;9.32;;;1.17;;
9799;SDS011;4939;52.00085300;4.17406100;2024-03-02T13:30:58;6.00;;;0.90;;